sensor_id;sensor_type;location;lat;lon;timestamp;P1;durP1;ratioP1;P2;durP2;ratioP2
53867;SDS011;41577;47.470;19.080;2022-12-18T00:02:10;5.82;;;4.10;;
53867;SDS011;41577;47.470;19.080;2022-12-18T00:17:12;3.38;;;2.65;;
53867;SDS011;41577;47.470;19.080;2022-12-18T00:32:15;13.07;;;3.50;;
53867;SDS011;41577;47.470;19.080;2022-12-18T00:47:19;2.22;;;2.00;;
53867;SDS011;41577;47.470;19.080;2022-12-18T01:02:21;4.75;;;3.85;;
53867;SDS011;41577;47.470;19.080;2022-12-18T01:17:25;4.53;;;2.83;;
53867;SDS011;41577;47.470;19.080;2022-12-18T01:32:30;4.03;;;3.50;;
53867;SDS011;41577;47.470;19.080;2022-12-18T01:47:34;2.25;;;1.17;;
53867;SDS011;41577;47.470;19.080;2022-12-18T02:02:39;2.25;;;2.08;;
53867;SDS011;41577;47.470;19.080;2022-12-18T02:17:43;2.53;;;1.42;;
53867;SDS011;41577;47.470;19.080;2022-12-18T02:32:50;3.97;;;2.88;;
53867;SDS011;41577;47.470;19.080;2022-12-18T02:47:54;1.08;;;0.90;;
53867;SDS011;41577;47.470;19.080;2022-12-18T03:02:59;0.88;;;0.88;;
53867;SDS011;41577;47.470;19.080;2022-12-18T03:18:08;3.90;;;2.30;;
53867;SDS011;41577;47.470;19.080;2022-12-18T03:33:16;6.32;;;1.75;;
53867;SDS011;41577;47.470;19.080;2022-12-18T03:48:27;3.35;;;2.22;;
53867;SDS011;41577;47.470;19.080;2022-12-18T04:03:38;6.65;;;3.05;;
53867;SDS011;41577;47.470;19.080;2022-12-18T04:18:43;2.40;;;1.73;;
53867;SDS011;41577;47.470;19.080;2022-12-18T04:33:45;6.68;;;4.25;;
53867;SDS011;41577;47.470;19.080;2022-12-18T04:48:49;3.55;;;2.63;;
53867;SDS011;41577;47.470;19.080;2022-12-18T05:03:51;2.22;;;1.52;;
53867;SDS011;41577;47.470;19.080;2022-12-18T05:18:54;4.15;;;2.13;;
53867;SDS011;41577;47.470;19.080;2022-12-18T05:33:57;0.40;;;0.40;;
53867;SDS011;41577;47.470;19.080;2022-12-18T05:49:00;5.45;;;2.50;;
53867;SDS011;41577;47.470;19.080;2022-12-18T06:04:02;4.93;;;2.08;;
53867;SDS011;41577;47.470;19.080;2022-12-18T06:19:05;1.65;;;1.55;;
53867;SDS011;41577;47.470;19.080;2022-12-18T06:34:07;17.25;;;3.47;;
53867;SDS011;41577;47.470;19.080;2022-12-18T06:49:09;1.77;;;1.67;;
53867;SDS011;41577;47.470;19.080;2022-12-18T07:04:11;13.13;;;2.38;;
53867;SDS011;41577;47.470;19.080;2022-12-18T07:19:14;1.35;;;1.25;;
53867;SDS011;41577;47.470;19.080;2022-12-18T07:34:16;0.75;;;0.75;;
53867;SDS011;41577;47.470;19.080;2022-12-18T07:49:18;7.30;;;5.22;;
53867;SDS011;41577;47.470;19.080;2022-12-18T08:04:21;2.45;;;2.25;;
53867;SDS011;41577;47.470;19.080;2022-12-18T08:19:25;4.18;;;2.05;;
53867;SDS011;41577;47.470;19.080;2022-12-18T08:34:28;5.63;;;3.88;;
53867;SDS011;41577;47.470;19.080;2022-12-18T08:49:30;9.43;;;5.65;;
53867;SDS011;41577;47.470;19.080;2022-12-18T09:04:32;7.75;;;4.30;;
53867;SDS011;41577;47.470;19.080;2022-12-18T09:19:34;6.35;;;3.55;;
53867;SDS011;41577;47.470;19.080;2022-12-18T09:34:37;2.72;;;2.25;;
53867;SDS011;41577;47.470;19.080;2022-12-18T09:49:39;14.38;;;5.03;;
53867;SDS011;41577;47.470;19.080;2022-12-18T10:04:44;6.60;;;3.67;;
53867;SDS011;41577;47.470;19.080;2022-12-18T10:19:55;15.60;;;4.03;;
53867;SDS011;41577;47.470;19.080;2022-12-18T10:35:01;4.63;;;3.38;;
53867;SDS011;41577;47.470;19.080;2022-12-18T10:50:03;9.50;;;5.10;;
53867;SDS011;41577;47.470;19.080;2022-12-18T11:05:22;14.77;;;4.13;;
53867;SDS011;41577;47.470;19.080;2022-12-18T11:20:29;12.25;;;6.22;;
53867;SDS011;41577;47.470;19.080;2022-12-18T11:35:39;18.10;;;6.35;;
53867;SDS011;41577;47.470;19.080;2022-12-18T11:50:46;15.88;;;9.15;;
53867;SDS011;41577;47.470;19.080;2022-12-18T12:05:59;10.90;;;7.03;;
53867;SDS011;41577;47.470;19.080;2022-12-18T12:21:11;12.05;;;7.55;;
53867;SDS011;41577;47.470;19.080;2022-12-18T12:36:21;10.40;;;7.47;;
53867;SDS011;41577;47.470;19.080;2022-12-18T12:51:39;14.98;;;8.50;;
53867;SDS011;41577;47.470;19.080;2022-12-18T13:06:45;20.40;;;8.47;;
53867;SDS011;41577;47.470;19.080;2022-12-18T13:21:53;30.45;;;12.52;;
53867;SDS011;41577;47.470;19.080;2022-12-18T13:36:57;28.95;;;15.38;;
53867;SDS011;41577;47.470;19.080;2022-12-18T14:08:47;21.52;;;13.07;;
53867;SDS011;41577;47.470;19.080;2022-12-18T14:23:54;20.63;;;10.40;;
53867;SDS011;41577;47.470;19.080;2022-12-18T14:39:05;17.67;;;9.57;;
53867;SDS011;41577;47.470;19.080;2022-12-18T15:25:34;10.35;;;5.20;;
53867;SDS011;41577;47.470;19.080;2022-12-18T15:40:39;21.05;;;11.90;;
53867;SDS011;41577;47.470;19.080;2022-12-18T15:55:44;12.43;;;4.23;;
53867;SDS011;41577;47.470;19.080;2022-12-18T16:10:49;10.82;;;5.90;;
53867;SDS011;41577;47.470;19.080;2022-12-18T16:25:54;6.57;;;5.70;;
53867;SDS011;41577;47.470;19.080;2022-12-18T16:40:57;5.88;;;5.25;;
53867;SDS011;41577;47.470;19.080;2022-12-18T16:56:02;8.13;;;5.53;;
53867;SDS011;41577;47.470;19.080;2022-12-18T17:11:06;19.42;;;6.18;;
53867;SDS011;41577;47.470;19.080;2022-12-18T17:26:10;8.93;;;5.95;;
53867;SDS011;41577;47.470;19.080;2022-12-18T17:41:15;17.27;;;7.70;;
53867;SDS011;41577;47.470;19.080;2022-12-18T17:56:18;10.52;;;7.75;;
53867;SDS011;41577;47.470;19.080;2022-12-18T18:11:22;8.13;;;3.47;;
53867;SDS011;41577;47.470;19.080;2022-12-18T18:26:25;8.98;;;6.15;;
53867;SDS011;41577;47.470;19.080;2022-12-18T18:41:28;16.27;;;11.40;;
53867;SDS011;41577;47.470;19.080;2022-12-18T18:56:31;12.63;;;6.70;;
53867;SDS011;41577;47.470;19.080;2022-12-18T19:11:38;18.17;;;9.95;;
53867;SDS011;41577;47.470;19.080;2022-12-18T19:26:41;11.83;;;7.57;;
53867;SDS011;41577;47.470;19.080;2022-12-18T19:41:45;17.25;;;7.20;;
53867;SDS011;41577;47.470;19.080;2022-12-18T19:56:49;27.05;;;9.63;;
53867;SDS011;41577;47.470;19.080;2022-12-18T20:11:51;33.65;;;8.10;;
53867;SDS011;41577;47.470;19.080;2022-12-18T20:26:54;7.88;;;4.38;;
53867;SDS011;41577;47.470;19.080;2022-12-18T20:41:57;8.85;;;5.68;;
53867;SDS011;41577;47.470;19.080;2022-12-18T20:57:00;4.93;;;4.43;;
53867;SDS011;41577;47.470;19.080;2022-12-18T21:12:03;5.93;;;4.05;;
53867;SDS011;41577;47.470;19.080;2022-12-18T21:27:05;9.20;;;5.93;;
53867;SDS011;41577;47.470;19.080;2022-12-18T21:42:08;6.75;;;4.38;;
53867;SDS011;41577;47.470;19.080;2022-12-18T21:57:11;5.90;;;3.95;;
53867;SDS011;41577;47.470;19.080;2022-12-18T22:12:13;11.05;;;6.35;;
53867;SDS011;41577;47.470;19.080;2022-12-18T22:27:15;5.45;;;4.53;;
53867;SDS011;41577;47.470;19.080;2022-12-18T22:42:18;7.25;;;6.05;;
53867;SDS011;41577;47.470;19.080;2022-12-18T22:57:20;5.30;;;3.83;;
53867;SDS011;41577;47.470;19.080;2022-12-18T23:12:23;4.43;;;3.60;;
53867;SDS011;41577;47.470;19.080;2022-12-18T23:27:25;5.22;;;4.68;;
53867;SDS011;41577;47.470;19.080;2022-12-18T23:42:29;14.05;;;7.90;;
53867;SDS011;41577;47.470;19.080;2022-12-18T23:57:31;27.23;;;8.82;;
